createdAt,value
2022-11-03T00:01:13.596Z,15.59
2022-11-03T00:04:03.733Z,15.58
2022-11-03T00:06:54.745Z,15.57
2022-11-03T00:09:45.436Z,15.55
2022-11-03T00:12:36.138Z,15.53
2022-11-03T00:15:26.332Z,15.51
2022-11-03T00:18:16.518Z,15.50
2022-11-03T00:21:08.140Z,15.48
2022-11-03T00:23:58.737Z,15.48
2022-11-03T00:26:49.541Z,15.46
2022-11-03T00:29:39.730Z,15.45
2022-11-03T00:32:30.326Z,15.41
2022-11-03T00:35:20.514Z,15.39
2022-11-03T00:38:10.501Z,15.39
2022-11-03T00:41:01.709Z,15.36
2022-11-03T00:43:52.266Z,15.35
2022-11-03T00:46:42.296Z,15.34
2022-11-03T00:49:32.481Z,15.31
2022-11-03T00:52:22.470Z,15.31
2022-11-03T00:55:13.063Z,15.30
2022-11-03T00:58:03.456Z,15.29
2022-11-03T01:00:59.484Z,15.28
2022-11-03T01:04:04.112Z,15.29
2022-11-03T01:06:55.457Z,15.26
2022-11-03T01:09:46.164Z,15.26
2022-11-03T01:12:36.930Z,15.25
2022-11-03T01:15:27.116Z,15.25
2022-11-03T01:18:16.872Z,15.23
2022-11-03T01:21:07.701Z,15.23
2022-11-03T01:23:57.887Z,15.23
2022-11-03T01:26:48.077Z,15.23
2022-11-03T01:29:38.363Z,15.21
2022-11-03T01:32:29.683Z,15.21
2022-11-03T01:35:20.278Z,15.21
2022-11-03T01:38:10.673Z,15.20
2022-11-03T01:41:02.501Z,15.20
2022-11-03T01:44:06.624Z,15.19
2022-11-03T01:46:59.602Z,15.15
2022-11-03T01:49:51.337Z,15.16
2022-11-03T01:52:44.434Z,15.14
2022-11-03T01:55:36.609Z,15.14
2022-11-03T01:58:29.112Z,15.13
2022-11-03T02:01:19.676Z,15.13
2022-11-03T02:04:12.425Z,15.12
2022-11-03T02:07:06.437Z,15.11
2022-11-03T02:09:57.152Z,15.11
2022-11-03T02:12:48.111Z,15.11
2022-11-03T02:15:39.577Z,15.10
2022-11-03T02:18:35.298Z,15.09
2022-11-03T02:21:27.976Z,15.07
2022-11-03T02:24:24.773Z,15.06
2022-11-03T02:27:15.378Z,15.06
2022-11-03T02:30:05.933Z,15.05
2022-11-03T02:32:59.244Z,15.06
2022-11-03T02:35:53.160Z,15.04
2022-11-03T02:38:46.947Z,15.02
2022-11-03T02:41:38.767Z,15.01
2022-11-03T02:44:30.344Z,15.00
2022-11-03T02:47:22.488Z,14.99
2022-11-03T02:50:14.003Z,14.96
2022-11-03T02:53:04.778Z,14.94
2022-11-03T02:56:00.451Z,14.94
2022-11-03T02:59:08.111Z,14.93
2022-11-03T03:02:11.514Z,14.92
2022-11-03T03:05:32.522Z,14.91
2022-11-03T03:12:07.169Z,14.89
2022-11-03T03:21:28.360Z,14.81
2022-11-03T03:30:35.239Z,14.69
2022-11-03T03:36:33.742Z,14.55
2022-11-03T03:39:30.688Z,14.47
2022-11-03T03:42:21.956Z,14.40
2022-11-03T03:45:14.761Z,14.31
2022-11-03T03:48:06.551Z,14.21
2022-11-03T03:50:58.098Z,14.13
2022-11-03T03:53:51.384Z,14.05
2022-11-03T03:56:43.802Z,13.97
2022-11-03T03:59:34.299Z,13.91
2022-11-03T04:02:25.266Z,13.84
2022-11-03T04:05:16.108Z,13.78
2022-11-03T04:08:08.479Z,13.72
2022-11-03T04:11:16.966Z,13.64
2022-11-03T04:14:25.189Z,13.54
2022-11-03T04:17:38.392Z,13.47
2022-11-03T04:20:46.921Z,13.42
2022-11-03T04:23:37.517Z,13.38
2022-11-03T04:26:29.013Z,13.35
2022-11-03T04:29:19.741Z,13.31
2022-11-03T04:32:14.550Z,13.27
2022-11-03T04:35:08.918Z,13.24
2022-11-03T04:38:02.469Z,13.20
2022-11-03T04:40:55.163Z,13.16
2022-11-03T04:43:47.207Z,13.11
2022-11-03T04:46:37.664Z,13.06
2022-11-03T04:49:27.849Z,13.03
2022-11-03T04:52:19.063Z,12.97
2022-11-03T04:55:11.965Z,12.94
2022-11-03T04:58:06.316Z,12.89
2022-11-03T05:00:58.618Z,12.86
2022-11-03T05:03:50.282Z,12.83
2022-11-03T05:06:40.658Z,12.80
2022-11-03T05:09:31.508Z,12.75
2022-11-03T05:12:22.971Z,12.72
2022-11-03T05:15:28.216Z,12.68
2022-11-03T05:18:20.224Z,12.62
2022-11-03T05:21:11.689Z,12.59
2022-11-03T05:24:04.223Z,12.56
2022-11-03T05:26:55.578Z,12.53
2022-11-03T05:29:46.537Z,12.51
2022-11-03T05:32:36.721Z,12.48
2022-11-03T05:35:27.524Z,12.46
2022-11-03T05:38:18.389Z,12.43
2022-11-03T05:41:15.976Z,12.42
2022-11-03T05:44:16.319Z,12.40
2022-11-03T05:47:10.691Z,12.38
2022-11-03T05:50:08.816Z,12.39
2022-11-03T05:53:01.628Z,12.38
2022-11-03T05:55:52.227Z,12.37
2022-11-03T05:58:44.595Z,12.38
2022-11-03T06:01:36.172Z,12.38
2022-11-03T06:04:29.871Z,12.40
2022-11-03T06:07:23.465Z,12.41
2022-11-03T06:10:22.669Z,12.43
2022-11-03T06:13:16.140Z,12.46
2022-11-03T06:16:08.211Z,12.49
2022-11-03T06:19:01.627Z,12.51
2022-11-03T06:21:54.133Z,12.54
2022-11-03T06:24:45.872Z,12.57
2022-11-03T06:27:36.760Z,12.60
2022-11-03T06:30:29.314Z,12.64
2022-11-03T06:33:23.677Z,12.66
2022-11-03T06:36:15.932Z,12.72
2022-11-03T06:39:19.694Z,12.75
2022-11-03T06:42:15.782Z,12.82
2022-11-03T06:45:13.748Z,12.85
2022-11-03T06:48:04.430Z,12.92
2022-11-03T06:50:55.232Z,12.96
2022-11-03T06:53:46.243Z,13.02
2022-11-03T06:56:37.428Z,13.07
2022-11-03T06:59:28.052Z,13.14
2022-11-03T07:02:34.318Z,13.19
2022-11-03T07:05:27.872Z,13.26
2022-11-03T07:08:22.552Z,13.32
2022-11-03T07:11:16.796Z,13.41
2022-11-03T07:14:13.152Z,13.45
2022-11-03T07:17:05.034Z,13.52
2022-11-03T07:19:55.416Z,13.60
2022-11-03T07:22:47.403Z,13.69
2022-11-03T07:25:39.287Z,13.76
2022-11-03T07:28:32.482Z,13.84
2022-11-03T07:31:25.400Z,13.91
2022-11-03T07:34:17.092Z,14.03
2022-11-03T07:37:07.038Z,14.14
2022-11-03T07:39:59.842Z,14.23
2022-11-03T07:42:50.237Z,14.36
2022-11-03T07:45:44.049Z,14.47
2022-11-03T07:48:37.090Z,14.58
2022-11-03T07:51:30.045Z,14.69
2022-11-03T07:54:21.639Z,14.81
2022-11-03T07:57:16.838Z,14.94
2022-11-03T08:00:10.526Z,15.06
2022-11-03T08:03:05.200Z,15.17
2022-11-03T08:05:56.988Z,15.26
2022-11-03T08:08:48.561Z,15.37
2022-11-03T08:11:38.955Z,15.47
2022-11-03T08:14:30.767Z,15.55
2022-11-03T08:17:22.814Z,15.63
2022-11-03T08:20:14.022Z,15.72
2022-11-03T08:26:14.059Z,15.93
2022-11-03T08:29:04.266Z,16.02
2022-11-03T08:31:54.227Z,16.10
2022-11-03T08:34:44.375Z,16.19
2022-11-03T08:37:34.199Z,16.30
2022-11-03T08:40:24.911Z,16.39
2022-11-03T08:43:16.419Z,16.49
2022-11-03T08:46:15.892Z,16.58
2022-11-03T08:49:07.653Z,16.66
2022-11-03T08:51:58.455Z,16.76
2022-11-03T08:54:48.737Z,16.84
2022-11-03T08:57:39.443Z,16.94
2022-11-03T09:00:30.254Z,17.03
2022-11-03T09:03:21.015Z,17.14
2022-11-03T09:06:12.266Z,17.23
2022-11-03T09:12:14.553Z,17.42
2022-11-03T09:15:04.569Z,17.51
2022-11-03T09:17:55.958Z,17.60
2022-11-03T09:20:47.583Z,17.71
2022-11-03T09:23:37.969Z,17.82
2022-11-03T09:26:28.887Z,17.93
2022-11-03T09:29:19.438Z,18.02
2022-11-03T09:32:10.180Z,18.10
2022-11-03T09:35:00.148Z,18.21
2022-11-03T09:37:50.353Z,18.29
2022-11-03T09:40:41.621Z,18.38
2022-11-03T09:43:32.773Z,18.44
2022-11-03T09:46:23.402Z,18.51
2022-11-03T09:49:15.404Z,18.56
2022-11-03T09:52:06.662Z,18.60
2022-11-03T09:54:57.081Z,18.65
2022-11-03T09:57:49.043Z,18.68
2022-11-03T10:00:39.896Z,18.72
2022-11-03T10:03:32.543Z,18.74
2022-11-03T10:06:22.681Z,18.76
2022-11-03T10:09:17.571Z,18.81
2022-11-03T10:12:10.693Z,18.83
2022-11-03T10:15:00.920Z,18.87
2022-11-03T10:17:52.306Z,18.91
2022-11-03T10:20:43.504Z,18.99
2022-11-03T10:23:33.483Z,19.04
2022-11-03T10:26:24.506Z,19.09
2022-11-03T10:29:23.834Z,19.13
2022-11-03T10:32:30.116Z,19.17
2022-11-03T10:35:36.175Z,19.23
2022-11-03T10:38:38.313Z,19.33
2022-11-03T10:41:30.691Z,19.36
2022-11-03T10:44:22.305Z,19.41
2022-11-03T10:47:23.965Z,19.43
2022-11-03T10:50:25.922Z,19.49
2022-11-03T10:53:19.286Z,19.56
2022-11-03T10:56:10.507Z,19.64
2022-11-03T10:59:02.135Z,19.70
2022-11-03T11:01:53.478Z,19.73
2022-11-03T11:04:43.989Z,19.79
2022-11-03T11:07:35.385Z,19.83
2022-11-03T11:10:26.372Z,19.86
2022-11-03T11:13:32.148Z,19.89
2022-11-03T11:16:44.016Z,19.94
2022-11-03T11:19:54.891Z,19.98
2022-11-03T11:22:45.124Z,19.99
2022-11-03T11:26:05.577Z,20.00
2022-11-03T11:29:10.169Z,19.99
2022-11-03T11:32:01.521Z,20.00
2022-11-03T11:34:52.884Z,20.01
2022-11-03T11:37:43.796Z,20.05
2022-11-03T11:40:47.650Z,20.11
2022-11-03T11:43:39.477Z,20.17
2022-11-03T11:46:41.340Z,20.21
2022-11-03T11:49:31.433Z,20.25
2022-11-03T11:52:21.719Z,20.26
2022-11-03T11:55:18.352Z,20.28
2022-11-03T11:58:15.335Z,20.26
2022-11-03T12:01:06.214Z,20.28
2022-11-03T12:03:58.866Z,20.34
2022-11-03T12:06:49.380Z,20.38
2022-11-03T12:09:40.485Z,20.42
2022-11-03T12:12:37.853Z,20.44
2022-11-03T12:15:45.071Z,20.47
2022-11-03T12:18:40.718Z,20.50
2022-11-03T12:21:49.643Z,20.54
2022-11-03T12:24:51.333Z,20.56
2022-11-03T12:27:44.765Z,20.60
2022-11-03T12:30:39.719Z,20.60
2022-11-03T12:33:30.579Z,20.61
2022-11-03T12:36:20.976Z,20.62
2022-11-03T12:39:12.039Z,20.65
2022-11-03T12:42:03.471Z,20.65
2022-11-03T12:44:54.813Z,20.63
2022-11-03T12:47:45.009Z,20.64
2022-11-03T12:50:38.268Z,20.64
2022-11-03T12:53:29.275Z,20.62
2022-11-03T12:56:20.077Z,20.59
2022-11-03T12:59:11.499Z,20.58
2022-11-03T13:02:01.990Z,20.56
2022-11-03T13:04:52.512Z,20.54
2022-11-03T13:07:43.915Z,20.54
2022-11-03T13:10:34.098Z,20.52
2022-11-03T13:13:24.284Z,20.52
2022-11-03T13:16:14.878Z,20.51
2022-11-03T13:19:04.909Z,20.49
2022-11-03T13:21:56.486Z,20.49
2022-11-03T13:24:50.274Z,20.47
2022-11-03T13:27:44.096Z,20.45
2022-11-03T13:30:36.390Z,20.42
2022-11-03T13:33:31.645Z,20.38
2022-11-03T13:36:22.672Z,20.33
2022-11-03T13:39:14.412Z,20.29
2022-11-03T13:42:04.602Z,20.26
2022-11-03T13:48:30.052Z,20.16
2022-11-03T13:51:00.736Z,20.11
2022-11-03T14:00:16.924Z,19.93
2022-11-03T14:06:20.727Z,19.84
2022-11-03T14:09:10.915Z,19.76
2022-11-03T14:12:19.542Z,19.71
2022-11-03T14:15:11.045Z,19.65
2022-11-03T14:18:00.941Z,19.59
2022-11-03T14:20:51.128Z,19.54
2022-11-03T14:23:41.342Z,19.47
2022-11-03T14:26:42.247Z,19.41
2022-11-03T14:29:35.414Z,19.35
2022-11-03T14:32:27.856Z,19.28
2022-11-03T14:35:19.276Z,19.21
2022-11-03T14:38:09.257Z,19.14
2022-11-03T14:41:18.289Z,19.05
2022-11-03T14:44:08.690Z,18.95
2022-11-03T14:47:01.738Z,18.86
2022-11-03T14:49:52.335Z,18.79
2022-11-03T14:52:43.346Z,18.71
2022-11-03T14:55:35.171Z,18.62
2022-11-03T14:58:25.153Z,18.53
2022-11-03T15:01:15.049Z,18.45
2022-11-03T15:04:08.081Z,18.36
2022-11-03T15:06:58.589Z,18.26
2022-11-03T15:09:50.533Z,18.16
2022-11-03T15:12:41.015Z,18.07
2022-11-03T15:15:31.201Z,17.96
2022-11-03T15:18:21.220Z,17.85
2022-11-03T15:21:13.220Z,17.76
2022-11-03T15:27:13.871Z,17.55
2022-11-03T15:30:04.450Z,17.46
2022-11-03T15:32:56.907Z,17.37
2022-11-03T15:35:47.490Z,17.25
2022-11-03T15:38:37.899Z,17.15
2022-11-03T15:41:27.887Z,17.05
2022-11-03T15:44:18.276Z,16.92
2022-11-03T15:47:08.525Z,16.81
2022-11-03T15:49:58.454Z,16.69
2022-11-03T15:52:50.127Z,16.57
2022-11-03T15:55:41.319Z,16.47
2022-11-03T15:58:34.665Z,16.35
2022-11-03T16:01:26.586Z,16.23
2022-11-03T16:04:17.526Z,16.12
2022-11-03T16:07:08.858Z,16.03
2022-11-03T16:09:59.413Z,15.90
2022-11-03T16:12:49.789Z,15.78
2022-11-03T16:15:39.985Z,15.66
2022-11-03T16:18:30.372Z,15.57
2022-11-03T16:21:20.766Z,15.44
2022-11-03T16:24:11.566Z,15.31
2022-11-03T16:27:02.992Z,15.20
2022-11-03T16:29:56.057Z,15.08
2022-11-03T16:32:46.640Z,14.98
2022-11-03T16:35:38.876Z,14.87
2022-11-03T16:38:28.682Z,14.76
2022-11-03T16:41:19.659Z,14.62
2022-11-03T16:44:10.055Z,14.53
2022-11-03T16:47:00.246Z,14.44
2022-11-03T16:49:53.173Z,14.34
2022-11-03T16:52:43.488Z,14.25
2022-11-03T16:55:33.678Z,14.16
2022-11-03T16:58:23.865Z,14.07
2022-11-03T17:01:17.067Z,13.96
2022-11-03T17:04:08.613Z,13.87
2022-11-03T17:06:59.344Z,13.79
2022-11-03T17:09:50.151Z,13.69
2022-11-03T17:12:40.335Z,13.61
2022-11-03T17:15:30.731Z,13.53
2022-11-03T17:18:21.991Z,13.45
2022-11-03T17:21:12.131Z,13.34
2022-11-03T17:24:04.368Z,13.25
2022-11-03T17:26:57.731Z,13.16
2022-11-03T17:29:49.981Z,13.09
2022-11-03T17:32:42.312Z,13.00
2022-11-03T17:35:38.948Z,12.93
2022-11-03T17:38:30.925Z,12.85
2022-11-03T17:41:20.861Z,12.76
2022-11-03T17:44:12.733Z,12.70
2022-11-03T17:47:03.283Z,12.64
2022-11-03T17:49:53.883Z,12.56
2022-11-03T17:52:45.693Z,12.50
2022-11-03T17:55:36.121Z,12.43
2022-11-03T17:58:29.401Z,12.35
2022-11-03T18:01:23.245Z,12.28
2022-11-03T18:07:17.334Z,12.14
2022-11-03T18:10:08.643Z,12.07
2022-11-03T18:13:20.238Z,12.00
2022-11-03T18:16:15.094Z,11.94
2022-11-03T18:19:05.767Z,11.87
2022-11-03T18:21:58.380Z,11.82
2022-11-03T18:24:49.388Z,11.75
2022-11-03T18:27:39.783Z,11.67
2022-11-03T18:30:31.402Z,11.60
2022-11-03T18:33:23.775Z,11.52
2022-11-03T18:36:15.395Z,11.48
2022-11-03T18:39:06.268Z,11.42
2022-11-03T18:41:57.278Z,11.37
2022-11-03T18:44:47.258Z,11.29
2022-11-03T18:47:37.448Z,11.24
2022-11-03T18:50:28.049Z,11.18
2022-11-03T18:53:19.939Z,11.12
2022-11-03T18:56:13.187Z,11.07
2022-11-03T18:59:04.755Z,11.00
2022-11-03T19:01:54.850Z,10.96
2022-11-03T19:04:45.336Z,10.90
2022-11-03T19:07:36.548Z,10.83
2022-11-03T19:10:26.585Z,10.79
2022-11-03T19:13:18.237Z,10.74
2022-11-03T19:16:13.772Z,10.70
2022-11-03T19:19:03.856Z,10.65
2022-11-03T19:21:54.453Z,10.62
2022-11-03T19:24:45.888Z,10.60
2022-11-03T19:27:38.511Z,10.55
2022-11-03T19:30:28.792Z,10.52
2022-11-03T19:33:22.487Z,10.47
2022-11-03T19:36:12.817Z,10.44
2022-11-03T19:39:04.611Z,10.40
2022-11-03T19:42:12.598Z,10.36
2022-11-03T19:45:03.821Z,10.32
2022-11-03T19:48:25.393Z,10.28
2022-11-03T19:51:06.920Z,10.23
2022-11-03T19:53:57.987Z,10.19
2022-11-03T19:56:48.319Z,10.15
2022-11-03T19:59:39.125Z,10.11
2022-11-03T20:02:29.688Z,10.07
2022-11-03T20:05:20.180Z,10.03
2022-11-03T20:08:14.543Z,9.96
2022-11-03T20:11:05.926Z,9.92
2022-11-03T20:13:56.414Z,9.88
2022-11-03T20:16:46.398Z,9.83
2022-11-03T20:19:37.314Z,9.80
2022-11-03T20:22:29.059Z,9.77
2022-11-03T20:25:22.080Z,9.71
2022-11-03T20:28:18.263Z,9.67
2022-11-03T20:31:09.421Z,9.62
2022-11-03T20:34:00.841Z,9.58
2022-11-03T20:36:52.038Z,9.53
2022-11-03T20:39:43.473Z,9.48
2022-11-03T20:42:33.656Z,9.45
2022-11-03T20:45:24.661Z,9.39
2022-11-03T20:48:16.288Z,9.36
2022-11-03T20:51:07.180Z,9.31
2022-11-03T20:53:59.559Z,9.27
2022-11-03T20:56:50.127Z,9.23
2022-11-03T20:59:41.959Z,9.20
2022-11-03T21:02:32.225Z,9.18
2022-11-03T21:05:23.618Z,9.14
2022-11-03T21:08:14.367Z,9.10
2022-11-03T21:11:18.272Z,9.07
2022-11-03T21:14:14.902Z,9.02
2022-11-03T21:17:22.199Z,8.98
2022-11-03T21:20:15.051Z,8.95
2022-11-03T21:23:07.920Z,8.92
2022-11-03T21:25:59.528Z,8.89
2022-11-03T21:28:49.915Z,8.86
2022-11-03T21:31:41.383Z,8.83
2022-11-03T21:34:31.316Z,8.79
2022-11-03T21:37:21.709Z,8.75
2022-11-03T21:40:22.140Z,8.71
2022-11-03T21:46:46.982Z,8.60
2022-11-03T21:49:52.641Z,8.58
2022-11-03T21:52:43.100Z,8.55
2022-11-03T21:55:33.086Z,8.53
2022-11-03T21:58:23.272Z,8.50
2022-11-03T22:01:13.787Z,8.47
2022-11-03T22:04:04.469Z,8.43
2022-11-03T22:06:58.345Z,8.42
2022-11-03T22:09:48.735Z,8.37
2022-11-03T22:12:39.185Z,8.35
2022-11-03T22:15:46.934Z,8.34
2022-11-03T22:18:37.738Z,8.31
2022-11-03T22:21:46.966Z,8.30
2022-11-03T22:24:55.177Z,8.29
2022-11-03T22:27:45.463Z,8.26
2022-11-03T22:30:57.875Z,8.24
2022-11-03T22:34:05.473Z,8.21
2022-11-03T22:36:56.228Z,8.19
2022-11-03T22:40:04.697Z,8.17
2022-11-03T22:43:12.910Z,8.14
2022-11-03T22:46:03.297Z,8.13
2022-11-03T22:48:53.688Z,8.11
2022-11-03T22:51:45.105Z,8.08
2022-11-03T22:54:35.798Z,8.08
2022-11-03T22:57:25.889Z,8.06
2022-11-03T23:00:20.586Z,8.04
2022-11-03T23:03:11.191Z,8.05
2022-11-03T23:06:02.854Z,8.04
2022-11-03T23:08:54.854Z,8.04
2022-11-03T23:11:44.822Z,8.04
2022-11-03T23:14:48.933Z,8.04
2022-11-03T23:17:58.578Z,8.01
2022-11-03T23:21:06.584Z,8.00
2022-11-03T23:24:14.590Z,7.97
2022-11-03T23:27:05.800Z,7.96
2022-11-03T23:29:55.991Z,7.95
2022-11-03T23:32:46.587Z,7.94
2022-11-03T23:35:40.249Z,7.93
2022-11-03T23:38:32.903Z,7.92
2022-11-03T23:41:24.322Z,7.91
2022-11-03T23:44:17.376Z,7.91
2022-11-03T23:47:27.429Z,7.90
2022-11-03T23:50:18.849Z,7.91
2022-11-03T23:53:10.326Z,7.90
2022-11-03T23:56:20.521Z,7.89
2022-11-03T23:59:11.531Z,7.89
